Time,TemperatureF,DewpointF,PressureIn,WindDirection,WindDirectionDegrees,WindSpeedMPH,WindSpeedGustMPH,Humidity,HourlyPrecipIn,Conditions,Clouds,dailyrainin,SoftwareType,DateUTC
2013-03-19 00:03:00,63.0,58.0,-100.00,North,2,4.0,8.0,85,0.00,,,0.00,,2013-03-19 10:03:00,
2013-03-19 00:12:00,63.0,58.0,-100.00,North,2,4.0,8.0,85,0.00,,,0.00,,2013-03-19 10:12:00,
2013-03-19 00:23:00,63.0,58.0,-100.00,North,2,4.0,8.0,85,0.00,,,0.00,,2013-03-19 10:23:00,
2013-03-19 00:32:00,63.0,58.0,-100.00,North,2,4.0,8.0,85,0.00,,,0.00,,2013-03-19 10:32:00,
2013-03-19 00:41:00,62.0,58.0,-100.00,North,3,5.0,9.0,86,0.00,,,0.00,,2013-03-19 10:41:00,
2013-03-19 01:02:00,62.0,58.0,-100.00,North,3,5.0,9.0,86,0.00,,,0.00,,2013-03-19 11:02:00,
2013-03-19 01:12:00,62.0,58.0,-100.00,North,3,5.0,9.0,86,0.00,,,0.00,,2013-03-19 11:12:00,
2013-03-19 01:22:00,62.0,58.0,-100.00,North,3,5.0,9.0,86,0.00,,,0.00,,2013-03-19 11:22:00,
2013-03-19 01:32:00,62.0,58.0,-100.00,North,3,5.0,9.0,86,0.00,,,0.00,,2013-03-19 11:32:00,
2013-03-19 01:41:00,61.0,57.0,-100.00,North,354,5.0,8.0,88,0.00,,,0.00,,2013-03-19 11:41:00,
2013-03-19 02:02:00,61.0,57.0,-100.00,North,354,5.0,8.0,88,0.00,,,0.00,,2013-03-19 12:02:00,
2013-03-19 02:12:00,61.0,57.0,-100.00,North,354,5.0,8.0,88,0.00,,,0.00,,2013-03-19 12:12:00,
2013-03-19 02:22:00,61.0,57.0,-100.00,North,354,5.0,8.0,88,0.00,,,0.00,,2013-03-19 12:22:00,
2013-03-19 02:32:00,61.0,57.0,-100.00,North,354,5.0,8.0,88,0.00,,,0.00,,2013-03-19 12:32:00,
2013-03-19 02:41:00,60.0,57.0,-100.00,North,7,4.0,7.0,89,0.00,,,0.00,,2013-03-19 12:41:00,
2013-03-19 03:02:00,60.0,57.0,-100.00,North,7,4.0,7.0,89,0.00,,,0.00,,2013-03-19 13:02:00,
2013-03-19 03:12:00,60.0,57.0,-100.00,North,7,4.0,7.0,89,0.00,,,0.00,,2013-03-19 13:12:00,
2013-03-19 03:22:00,60.0,57.0,-100.00,North,7,4.0,7.0,89,0.00,,,0.00,,2013-03-19 13:22:00,
2013-03-19 03:32:00,60.0,57.0,-100.00,North,7,4.0,7.0,89,0.00,,,0.00,,2013-03-19 13:32:00,
2013-03-19 03:41:00,60.0,57.0,-100.00,North,359,4.0,8.0,90,0.00,,,0.00,,2013-03-19 13:41:00,
2013-03-19 04:02:00,60.0,57.0,-100.00,North,359,4.0,8.0,90,0.00,,,0.00,,2013-03-19 14:02:00,
2013-03-19 04:12:00,60.0,57.0,-100.00,North,359,4.0,8.0,90,0.00,,,0.00,,2013-03-19 14:12:00,
2013-03-19 04:22:00,60.0,57.0,-100.00,North,359,4.0,8.0,90,0.00,,,0.00,,2013-03-19 14:22:00,
2013-03-19 04:32:00,60.0,57.0,-100.00,North,359,4.0,8.0,90,0.00,,,0.00,,2013-03-19 14:32:00,
2013-03-19 04:41:00,61.0,57.0,-100.00,North,359,4.0,9.0,87,0.00,,,0.00,,2013-03-19 14:41:00,
2013-03-19 05:02:00,61.0,57.0,-100.00,North,359,4.0,9.0,87,0.00,,,0.00,,2013-03-19 15:02:00,
2013-03-19 05:12:00,61.0,57.0,-100.00,North,359,4.0,9.0,87,0.00,,,0.00,,2013-03-19 15:12:00,
2013-03-19 05:22:00,61.0,57.0,-100.00,North,359,4.0,9.0,87,0.00,,,0.00,,2013-03-19 15:22:00,
2013-03-19 05:33:00,61.0,57.0,-100.00,North,359,4.0,9.0,87,0.00,,,0.00,,2013-03-19 15:33:00,
2013-03-19 05:41:00,61.0,58.0,-100.00,North,357,4.0,6.0,89,0.00,,,0.00,,2013-03-19 15:41:00,
2013-03-19 06:03:00,61.0,58.0,-100.00,North,357,4.0,6.0,89,0.00,,,0.00,,2013-03-19 16:03:00,
2013-03-19 06:13:00,61.0,58.0,-100.00,North,357,4.0,6.0,89,0.00,,,0.00,,2013-03-19 16:13:00,
2013-03-19 06:23:00,61.0,58.0,-100.00,North,357,4.0,6.0,89,0.00,,,0.00,,2013-03-19 16:23:00,
2013-03-19 06:33:00,61.0,58.0,-100.00,North,357,4.0,6.0,89,0.00,,,0.00,,2013-03-19 16:33:00,
2013-03-19 06:41:00,61.0,57.0,-100.00,North,2,4.0,6.0,87,0.00,,,0.00,,2013-03-19 16:41:00,
2013-03-19 07:03:00,61.0,57.0,-100.00,North,2,4.0,6.0,87,0.00,,,0.00,,2013-03-19 17:03:00,
2013-03-19 07:13:00,61.0,57.0,-100.00,North,2,4.0,6.0,87,0.00,,,0.00,,2013-03-19 17:13:00,
2013-03-19 07:23:00,61.0,57.0,-100.00,North,2,4.0,6.0,87,0.00,,,0.00,,2013-03-19 17:23:00,
2013-03-19 07:34:00,61.0,57.0,-100.00,North,2,4.0,6.0,87,0.00,,,0.00,,2013-03-19 17:34:00,
2013-03-19 07:41:00,63.0,58.0,-100.00,NNW,348,4.0,7.0,84,0.00,,,0.00,,2013-03-19 17:41:00,
2013-03-19 08:02:00,63.0,58.0,-100.00,NNW,348,4.0,7.0,84,0.00,,,0.00,,2013-03-19 18:02:00,
2013-03-19 08:13:00,63.0,58.0,-100.00,NNW,348,4.0,7.0,84,0.00,,,0.00,,2013-03-19 18:13:00,
2013-03-19 08:23:00,63.0,58.0,-100.00,NNW,348,4.0,7.0,84,0.00,,,0.00,,2013-03-19 18:23:00,
2013-03-19 08:33:00,63.0,58.0,-100.00,NNW,348,4.0,7.0,84,0.00,,,0.00,,2013-03-19 18:33:00,
2013-03-19 08:41:00,69.0,62.0,-100.00,NW,323,3.0,7.0,79,0.00,,,0.00,,2013-03-19 18:41:00,
2013-03-19 09:02:00,69.0,62.0,-100.00,NW,323,3.0,7.0,79,0.00,,,0.00,,2013-03-19 19:02:00,
2013-03-19 09:12:00,69.0,62.0,-100.00,NW,323,3.0,7.0,79,0.00,,,0.00,,2013-03-19 19:12:00,
2013-03-19 09:22:00,69.0,62.0,-100.00,NW,323,3.0,7.0,79,0.00,,,0.00,,2013-03-19 19:22:00,
2013-03-19 09:32:00,69.0,62.0,-100.00,NW,323,3.0,7.0,79,0.00,,,0.00,,2013-03-19 19:32:00,
2013-03-19 09:41:00,74.0,63.0,-100.00,North,10,2.0,4.0,69,0.00,,,0.00,,2013-03-19 19:41:00,
2013-03-19 10:02:00,74.0,63.0,-100.00,North,10,2.0,4.0,69,0.00,,,0.00,,2013-03-19 20:02:00,
2013-03-19 10:12:00,74.0,63.0,-100.00,North,10,2.0,4.0,69,0.00,,,0.00,,2013-03-19 20:12:00,
2013-03-19 10:22:00,74.0,63.0,-100.00,North,10,2.0,4.0,69,0.00,,,0.00,,2013-03-19 20:22:00,
2013-03-19 10:32:00,74.0,63.0,-100.00,North,10,2.0,4.0,69,0.00,,,0.00,,2013-03-19 20:32:00,
2013-03-19 10:41:00,80.0,64.0,-100.00,SE,138,4.0,8.0,58,0.00,,,0.00,,2013-03-19 20:41:00,
2013-03-19 11:02:00,80.0,64.0,-100.00,SE,138,4.0,8.0,58,0.00,,,0.00,,2013-03-19 21:02:00,
2013-03-19 11:11:00,80.0,64.0,-100.00,SE,138,4.0,8.0,58,0.00,,,0.00,,2013-03-19 21:11:00,
2013-03-19 11:22:00,80.0,64.0,-100.00,SE,138,4.0,8.0,58,0.00,,,0.00,,2013-03-19 21:22:00,
2013-03-19 11:33:00,80.0,64.0,-100.00,SE,138,4.0,8.0,58,0.00,,,0.00,,2013-03-19 21:33:00,
2013-03-19 11:41:00,80.0,61.0,-100.00,South,173,7.0,12.0,52,0.00,,,0.00,,2013-03-19 21:41:00,
2013-03-19 12:03:00,80.0,61.0,-100.00,South,173,7.0,12.0,52,0.00,,,0.00,,2013-03-19 22:03:00,
2013-03-19 12:12:00,80.0,61.0,-100.00,South,173,7.0,12.0,52,0.00,,,0.00,,2013-03-19 22:12:00,
2013-03-19 12:23:00,80.0,61.0,-100.00,South,173,7.0,12.0,52,0.00,,,0.00,,2013-03-19 22:23:00,
2013-03-19 12:33:00,80.0,61.0,-100.00,South,173,7.0,12.0,52,0.00,,,0.00,,2013-03-19 22:33:00,
2013-03-19 12:41:00,81.0,61.0,-100.00,South,172,7.0,14.0,51,0.00,,,0.00,,2013-03-19 22:41:00,
2013-03-19 13:02:00,81.0,61.0,-100.00,South,172,7.0,14.0,51,0.00,,,0.00,,2013-03-19 23:02:00,
2013-03-19 13:12:00,81.0,61.0,-100.00,South,172,7.0,14.0,51,0.00,,,0.00,,2013-03-19 23:12:00,
2013-03-19 13:22:00,81.0,61.0,-100.00,South,172,7.0,14.0,51,0.00,,,0.00,,2013-03-19 23:22:00,
2013-03-19 13:32:00,81.0,61.0,-100.00,South,172,7.0,14.0,51,0.00,,,0.00,,2013-03-19 23:32:00,
2013-03-19 13:41:00,80.0,62.0,-100.00,South,176,7.0,14.0,55,0.00,,,0.00,,2013-03-19 23:41:00,
2013-03-19 14:02:00,80.0,62.0,-100.00,South,176,7.0,14.0,55,0.00,,,0.00,,2013-03-20 00:02:00,
2013-03-19 14:12:00,80.0,62.0,-100.00,South,176,7.0,14.0,55,0.00,,,0.00,,2013-03-20 00:12:00,
2013-03-19 14:22:00,80.0,62.0,-100.00,South,176,7.0,14.0,55,0.00,,,0.00,,2013-03-20 00:22:00,
2013-03-19 14:32:00,80.0,62.0,-100.00,South,176,7.0,14.0,55,0.00,,,0.00,,2013-03-20 00:32:00,
2013-03-19 14:41:00,80.0,63.0,-100.00,SSE,165,7.0,15.0,57,0.00,,,0.00,,2013-03-20 00:41:00,
2013-03-19 15:02:00,80.0,63.0,-100.00,SSE,165,7.0,15.0,57,0.00,,,0.00,,2013-03-20 01:02:00,
2013-03-19 15:12:00,80.0,63.0,-100.00,SSE,165,7.0,15.0,57,0.00,,,0.00,,2013-03-20 01:12:00,
2013-03-19 15:22:00,80.0,63.0,-100.00,SSE,165,7.0,15.0,57,0.00,,,0.00,,2013-03-20 01:22:00,
2013-03-19 15:32:00,80.0,63.0,-100.00,SSE,165,7.0,15.0,57,0.00,,,0.00,,2013-03-20 01:32:00,
2013-03-19 15:41:00,78.0,62.0,-100.00,South,175,5.0,14.0,57,0.00,,,0.00,,2013-03-20 01:41:00,
2013-03-19 16:02:00,78.0,62.0,-100.00,South,175,5.0,14.0,57,0.00,,,0.00,,2013-03-20 02:02:00,
2013-03-19 16:12:00,78.0,62.0,-100.00,South,175,5.0,14.0,57,0.00,,,0.00,,2013-03-20 02:12:00,
2013-03-19 16:22:00,78.0,62.0,-100.00,South,175,5.0,14.0,57,0.00,,,0.00,,2013-03-20 02:22:00,
2013-03-19 16:32:00,78.0,62.0,-100.00,South,175,5.0,14.0,57,0.00,,,0.00,,2013-03-20 02:32:00,
2013-03-19 16:41:00,76.0,62.0,-100.00,SSE,148,6.0,12.0,63,0.00,,,0.00,,2013-03-20 02:41:00,
2013-03-19 17:02:00,76.0,62.0,-100.00,SSE,148,6.0,12.0,63,0.00,,,0.00,,2013-03-20 03:02:00,
2013-03-19 17:12:00,76.0,62.0,-100.00,SSE,148,6.0,12.0,63,0.00,,,0.00,,2013-03-20 03:12:00,
2013-03-19 17:22:00,76.0,62.0,-100.00,SSE,148,6.0,12.0,63,0.00,,,0.00,,2013-03-20 03:22:00,
2013-03-19 17:33:00,76.0,62.0,-100.00,SSE,148,6.0,12.0,63,0.00,,,0.00,,2013-03-20 03:33:00,
2013-03-19 17:41:00,76.0,64.0,-100.00,SSE,150,7.0,12.0,66,0.00,,,0.00,,2013-03-20 03:41:00,
2013-03-19 18:02:00,76.0,64.0,-100.00,SSE,150,7.0,12.0,66,0.00,,,0.00,,2013-03-20 04:02:00,
2013-03-19 18:12:00,76.0,64.0,-100.00,SSE,150,7.0,12.0,66,0.00,,,0.00,,2013-03-20 04:12:00,
2013-03-19 18:22:00,76.0,64.0,-100.00,SSE,150,7.0,12.0,66,0.00,,,0.00,,2013-03-20 04:22:00,
2013-03-19 18:32:00,76.0,64.0,-100.00,SSE,150,7.0,12.0,66,0.00,,,0.00,,2013-03-20 04:32:00,
2013-03-19 18:41:00,72.0,62.0,-100.00,SSE,150,4.0,10.0,71,0.00,,,0.00,,2013-03-20 04:41:00,
2013-03-19 19:02:00,72.0,62.0,-100.00,SSE,150,4.0,10.0,71,0.00,,,0.00,,2013-03-20 05:02:00,
2013-03-19 19:12:00,72.0,62.0,-100.00,SSE,150,4.0,10.0,71,0.00,,,0.00,,2013-03-20 05:12:00,
2013-03-19 19:22:00,72.0,62.0,-100.00,SSE,150,4.0,10.0,71,0.00,,,0.00,,2013-03-20 05:22:00,
2013-03-19 19:32:00,72.0,62.0,-100.00,SSE,150,4.0,10.0,71,0.00,,,0.00,,2013-03-20 05:32:00,
2013-03-19 19:41:00,71.0,63.0,-100.00,ESE,123,4.0,7.0,77,0.00,,,0.00,,2013-03-20 05:41:00,
2013-03-19 20:02:00,71.0,63.0,-100.00,ESE,123,4.0,7.0,77,0.00,,,0.00,,2013-03-20 06:02:00,
2013-03-19 20:12:00,71.0,63.0,-100.00,ESE,123,4.0,7.0,77,0.00,,,0.00,,2013-03-20 06:12:00,
2013-03-19 20:22:00,71.0,63.0,-100.00,ESE,123,4.0,7.0,77,0.00,,,0.00,,2013-03-20 06:22:00,
2013-03-19 20:32:00,71.0,63.0,-100.00,ESE,123,4.0,7.0,77,0.00,,,0.00,,2013-03-20 06:32:00,
2013-03-19 20:41:00,69.0,63.0,-100.00,East,85,4.0,6.0,80,0.00,,,0.00,,2013-03-20 06:41:00,
2013-03-19 21:02:00,69.0,63.0,-100.00,East,85,4.0,6.0,80,0.00,,,0.00,,2013-03-20 07:02:00,
2013-03-19 21:12:00,69.0,63.0,-100.00,East,85,4.0,6.0,80,0.00,,,0.00,,2013-03-20 07:12:00,
2013-03-19 21:22:00,69.0,63.0,-100.00,East,85,4.0,6.0,80,0.00,,,0.00,,2013-03-20 07:22:00,
2013-03-19 21:32:00,69.0,63.0,-100.00,East,85,4.0,6.0,80,0.00,,,0.00,,2013-03-20 07:32:00,
2013-03-19 21:41:00,66.0,61.0,-100.00,NNE,30,3.0,5.0,85,0.00,,,0.00,,2013-03-20 07:41:00,
2013-03-19 22:02:00,66.0,61.0,-100.00,NNE,30,3.0,5.0,85,0.00,,,0.00,,2013-03-20 08:02:00,
2013-03-19 22:12:00,66.0,61.0,-100.00,NNE,30,3.0,5.0,85,0.00,,,0.00,,2013-03-20 08:12:00,
2013-03-19 22:22:00,66.0,61.0,-100.00,NNE,30,3.0,5.0,85,0.00,,,0.00,,2013-03-20 08:22:00,
2013-03-19 22:32:00,66.0,61.0,-100.00,NNE,30,3.0,5.0,85,0.00,,,0.00,,2013-03-20 08:32:00,
2013-03-19 22:41:00,66.0,62.0,-100.00,North,10,3.0,5.0,86,0.00,,,0.00,,2013-03-20 08:41:00,
2013-03-19 23:02:00,66.0,62.0,-100.00,North,10,3.0,5.0,86,0.00,,,0.00,,2013-03-20 09:02:00,
2013-03-19 23:12:00,66.0,62.0,-100.00,North,10,3.0,5.0,86,0.00,,,0.00,,2013-03-20 09:12:00,
2013-03-19 23:22:00,66.0,62.0,-100.00,North,10,3.0,5.0,86,0.00,,,0.00,,2013-03-20 09:22:00,
2013-03-19 23:32:00,66.0,62.0,-100.00,North,10,3.0,5.0,86,0.00,,,0.00,,2013-03-20 09:32:00,
2013-03-19 23:41:00,65.0,62.0,-100.00,NNW,335,3.0,4.0,89,0.00,,,0.00,,2013-03-20 09:41:00,